Tikaboo Peak, Nevada Weather observations

Data are for 10 minute period ending at time listed.
 Day   Time   Solar   Ave.   Ave.  Ave.  Vector  Max.   Baro.   Total    
  of    of     Rad.   Air    Rel.  Wind   Wind   Wind  Press.  Precip.   
Year   Day            Temp.  Hum.  Speed  Dir.   Gust                    
2018   (PST)  Kw/m2    F      %     mph   deg.    mph    mb.     in.     
-------------------------------------------------------------------------
 262   16:00   0.29   71.2     7    9.7    38    16.7   759.5    0.00 
 262   16:10   0.25   69.9     7    8.6    55    13.9   759.4    0.00 
 262   16:20   0.21   69.9     7   12.0    52    24.0   759.4    0.00 
 262   16:30   0.17   69.4     7   10.3    42    15.3   759.4    0.00 
 262   16:40   0.14   68.9     8    9.6    38    16.4   759.4    0.00 
 262   16:50   0.11   68.6     8   10.1    34    18.4   759.5    0.00 
 262   17:00   0.09   67.8     8    8.8    44    14.2   759.7    0.00 
 262   17:10   0.06   67.2     8   12.0    56    22.6   759.5    0.00 
 262   17:20   0.04   66.4     8   11.5    57    20.8   759.4    0.00 
 262   17:30   0.03   65.9     8   12.2    61    21.3   759.5    0.00 
 262   17:40   0.02   65.3     9   12.2    64    19.1   759.7    0.00 
 262   17:50   0.01   64.5     9   10.1    52    19.8   759.8    0.00 
 262   18:00   0.00   63.9     9   10.5    62    18.1   759.9    0.00 
 262   18:10   0.00   63.5     9   10.5    53    18.3   760.0    0.00 
 262   18:20   0.00   63.1     9   10.6    59    18.0   759.9    0.00 
 262   18:30   0.00   62.8     9   13.1    59    19.3   760.1    0.00 
 262   18:40   0.00   62.4    10   13.2    53    18.6   760.2    0.00 
 262   18:50   0.00   61.9    10   10.8    57    16.1   760.3    0.00 
 262   19:00   0.00   61.6    10   11.4    67    18.9   760.4    0.00 
 262   19:10   0.00   61.0    10    8.6    67    15.6   760.5    0.00 
 262   19:20   0.00   60.1    11    7.5    72    14.8   760.7    0.00 
 262   19:30   0.00   60.4    11   10.2    68    15.5   760.8    0.00 
 262   19:40   0.00   60.0    11    8.8    73    15.5   760.9    0.00 
 262   19:50   0.00   59.8    11   12.0    76    18.3   761.0    0.00 
 262   20:00   0.00   59.5    12    9.4    82    20.0   761.1    0.00 
 262   20:10   0.00   59.1    12    8.2    78    16.6   761.2    0.00 
 262   20:20   0.00   58.6    12    4.2    88    13.5   761.3    0.00 
 262   20:30   0.00   57.8    13    5.2    79    14.8   761.5    0.00 
 262   20:40   0.00   57.4    12    7.5    81    12.6   761.5    0.00 
 262   20:50   0.00   57.4    12    4.1    87     8.8   761.6    0.00 
 262   21:00   0.00   57.4    12    3.0    87     8.3   761.6    0.00 
 262   21:10   0.00   57.7    12    1.2   100     4.5   761.6    0.00 
 262   21:20   0.00   58.1    11    2.2   119     6.9   761.6    0.00 
 262   21:30   0.00   58.3    11    5.7   110    11.5   761.6    0.00 
 262   21:40   0.00   58.0    11   12.4   116    15.8   761.6    0.00 
 262   21:50   0.00   58.5    11   12.1   110    14.8   761.7    0.00 
 262   22:00   0.00   58.3    11   10.4   110    13.4   761.6    0.00 
 262   22:10   0.00   57.9    11    8.8   106    13.7   761.7    0.00 
 262   22:20   0.00   57.8    11   10.9   113    15.3   761.7    0.00 
 262   22:30   0.00   58.0    11   10.9   111    18.5   761.8    0.00 
 262   22:40   0.00   58.5    11   12.7   114    17.0   761.8    0.00 
 262   22:50   0.00   58.4    11   14.2   112    17.1   761.9    0.00 
 262   23:00   0.00   58.4    10   12.6   110    16.7   761.9    0.00 
 262   23:10   0.00   58.6    10   12.4   124    16.3   761.9    0.00 
 262   23:20   0.00   59.5    10   14.2   147    17.2   762.0    0.00 
 262   23:30   0.00   59.7    10   15.4   148    17.2   762.0    0.00 
 262   23:40   0.00   59.7    10   16.1   145    17.3   762.0    0.00 
 262   23:50   0.00   59.6    10   14.9   145    16.2   761.9    0.00 
 263    0:00   0.00   59.3    10   14.0   151    15.8   761.9    0.00 
 263    0:10   0.00   58.0    10   12.8   174    17.4   761.9    0.00 
 263    0:20   0.00   57.5     9   13.1   161    15.6   761.9    0.00 
 263    0:30   0.00   56.5     8   13.1   171    16.0   761.9    0.00 
 263    0:40   0.00   56.3     8   13.0   169    16.3   762.0    0.00 
 263    0:50   0.00   56.2     9   14.0   170    18.3   762.0    0.00 
 263    1:00   0.00   55.5     9   15.0   178    18.9   762.0    0.00 
 263    1:10   0.00   55.8     9   16.0   164    20.0   762.0    0.00 
 263    1:20   0.00   56.3     9   16.2   147    20.1   762.0    0.00 
 263    1:30   0.00   56.7     9   15.4   142    18.8   762.0    0.00 
 263    1:40   0.00   56.6     9   16.8   127    20.0   761.9    0.00 
 263    1:50   0.00   56.1    10   17.0   126    20.8   762.0    0.00 
 263    2:00   0.00   56.1    10   15.9   122    19.7   761.9    0.00 
 263    2:10   0.00   55.6    10   15.5   143    21.9   761.9    0.00 
 263    2:20   0.00   54.8    11   14.6   156    19.1   762.1    0.00 
 263    2:30   0.00   54.2    12   15.3   165    19.2   762.1    0.00 
 263    2:40   0.00   54.7    12   15.7   159    19.4   762.2    0.00 
 263    2:50   0.00   55.1    11   15.4   155    21.4   762.2    0.00 
 263    3:00   0.00   55.0    11   15.2   149    20.8   762.2    0.00 
 263    3:10   0.00   55.1    11   14.3   139    19.2   762.2    0.00 
 263    3:20   0.00   55.0    11   13.5   154    16.9   762.3    0.00 
 263    3:30   0.00   54.5    12   14.4   158    18.3   762.3    0.00 
 263    3:40   0.00   53.9    12   14.5   162    19.2   762.4    0.00 
 263    3:50   0.00   53.5    12   14.8   173    19.7   762.4    0.00 
 263    4:00   0.00   53.0    13   15.2   175    19.5   762.4    0.00 
 263    4:10   0.00   53.2    13   15.7   174    21.2   762.5    0.00 
 263    4:20   0.00   52.8    13   16.8   183    22.2   762.5    0.00 
 263    4:30   0.00   52.6    13   17.0   178    23.4   762.6    0.00 
 263    4:40   0.00   52.2    14   16.9   178    21.5   762.7    0.00 
 263    4:50   0.00   51.9    14   17.7   181    25.0   762.8    0.00 
 263    5:00   0.00   51.9    14   19.4   181    25.4   762.6    0.00 
 263    5:10   0.00   51.4    14   19.2   180    27.8   762.8    0.00 
 263    5:20   0.00   51.2    14   19.4   188    26.6   762.9    0.00 
 263    5:30   0.00   51.2    15   19.2   184    25.1   763.0    0.00 
 263    5:40   0.04   51.4    16   18.6   188    26.7   763.0    0.00 
 263    5:50   0.07   51.5    17   19.6   186    26.5   763.2    0.00 
 263    6:00   0.12   51.8    17   20.5   186    28.0   763.2    0.00 
 263    6:10   0.16   52.2    17   21.8   186    27.2   763.4    0.00 
 263    6:20   0.20   52.3    16   20.0   185    27.1   763.6    0.00 
 263    6:30   0.24   52.2    16   20.2   190    26.4   763.7    0.00 
 263    6:40   0.28   52.4    16   18.6   188    22.6   763.8    0.00 
 263    6:50   0.32   52.5    16   18.8   186    24.9   763.9    0.00 
 263    7:00   0.36   53.0    16   19.8   186    27.0   763.8    0.00 
 263    7:10   0.40   53.6    15   19.3   188    26.3   763.9    0.00 
 263    7:20   0.44   54.6    14   19.9   190    27.9   764.1    0.00 
 263    7:30   0.48   55.1    14   19.9   186    25.5   764.2    0.00 
 263    7:40   0.52   55.4    14   19.2   185    25.1   764.3    0.00 
 263    7:50   0.55   55.8    14   19.2   187    25.4   764.4    0.00 
 263    8:00   0.59   55.9    14   16.2   187    24.8   764.5    0.00 
 263    8:10   0.62   56.3    14   19.3   190    24.8   764.5    0.00 
 263    8:20   0.66   56.6    14   17.7   192    23.9   764.6    0.00 
 263    8:30   0.69   56.9    14   15.7   193    23.2   764.8    0.00 
 263    8:40   0.72   57.5    14   15.1   193    20.5   764.9    0.00 
 263    8:50   0.74   58.4    14   11.7   194    20.8   765.0    0.00 
 263    9:00   0.77   58.5    14   12.5   193    22.4   765.2    0.00 
 263    9:10   0.80   59.0    14    9.7   188    16.2   765.1    0.00 
 263    9:20   0.82   60.1    14   10.2   184    15.9   765.2    0.00 
 263    9:30   0.84   60.7    13    8.5   195    14.2   765.2    0.00 
 263    9:40   0.86   62.7    12    7.6   213    13.7   765.1    0.00 
 263    9:50   0.88   63.4    12    6.4   220    10.8   765.1    0.00 
 263   10:00   0.90   63.4    12    6.1   262    10.4   765.2    0.00 
 263   10:10   0.91   63.9    12    5.0   264    10.2   765.2    0.00 
 263   10:20   0.93   64.5    11    5.3   257     9.0   765.1    0.00 
 263   10:30   0.94   65.8    11    2.3   164     6.4   765.2    0.00 
 263   10:40   0.95   64.7    12    2.0   120     5.9   765.1    0.00 
 263   10:50   0.95   66.0    11    2.3    69     7.3   765.2    0.00 
 263   11:00   0.96   67.5    11    0.7    86     4.6   765.2    0.00 
 263   11:10   0.96   67.3    10    1.3    96     5.3   765.2    0.00 
 263   11:20   0.96   68.9    10    1.8    69     5.7   765.1    0.00 
 263   11:30   0.96   70.6     9    1.2    64     6.2   765.0    0.00 
 263   11:40   0.96   71.5     9    2.1    61     6.0   765.0    0.00 
 263   11:50   0.95   70.2     9    1.1    87     5.0   764.9    0.00 
 263   12:00   0.94   70.9     9    1.2    89     7.2   765.0    0.00 
 263   12:10   0.93   70.9     9    2.0    80     7.6   764.9    0.00 
 263   12:20   0.92   71.2     9    1.4    80     6.2   764.9    0.00 
 263   12:30   0.91   72.4     9    0.7    81     4.1   764.8    0.00 
 263   12:40   0.90   72.9     9    1.3    48     5.3   764.8    0.00 
 263   12:50   0.88   71.9     9    0.7   177     3.9   764.7    0.00 
 263   13:00   0.86   70.2     9    2.2   138     6.9   764.9    0.00 
 263   13:10   0.84   71.2     9    2.2   100     8.0   764.8    0.00 
 263   13:20   0.81   71.1     9    1.7   122     6.7   764.8    0.00 
 263   13:30   0.79   70.1     9    2.0   132     7.8   764.7    0.00 
 263   13:40   0.76   70.9     9    2.6    76     9.9   764.7    0.00 
 263   13:50   0.73   73.8     8    2.7    65    13.2   764.6    0.00 
 263   14:00   0.71   73.8     8    4.1    69     9.1   764.7    0.00 
 263   14:10   0.68   71.1     9    2.2    78     9.5   764.6    0.00 
 263   14:20   0.65   72.3     9    4.2    52    12.9   764.7    0.00 
 263   14:30   0.61   72.8     8    4.6    67    12.9   764.6    0.00 
 263   14:40   0.58   72.7     8    5.1    82    12.1   764.6    0.00 
 263   14:50   0.54   73.6     8    3.2    75     9.8   764.6    0.00 
 263   15:00   0.51   73.0     8    3.3    88     9.7   764.7    0.00 
 263   15:10   0.47   72.1     8    3.1    97     8.2   764.7    0.00 
 263   15:20   0.43   72.9     8    2.8    73     8.0   764.7    0.00 
 263   15:30   0.32   72.9     8    3.5    69     9.0   764.7    0.00 
 263   15:40   0.35   69.9     9    2.1   154     8.7   764.6    0.00 
 263   15:50   0.32   69.7     9    3.6    62     9.9   764.6    0.00 

Return to Tikaboo Peak graphs page.


Western Regional Climate Center,wrcc@dri.edu